Time;durP1;ratioP1;P1;durP2;ratioP2;P2;SDS_P1;SDS_P2;PMS_P1;PMS_P2;Temp;Humidity;BMP_temperature;BMP_pressure;BME280_temperature;BME280_humidity;BME280_pressure;Samples;Min_cycle;Max_cycle;Signal;HPM_P1;HPM_P2
2021/10/09 00:01:07;;;;;;;29.50;16.60;;;;;;;5.92;61.59;102297.56;117011;1188;21999;-76
2021/10/09 00:03:37;;;;;;;25.00;16.60;;;;;;;5.90;61.69;102294.84;116943;1188;24078;-76
2021/10/09 00:06:06;;;;;;;29.00;16.80;;;;;;;5.91;61.88;102300.58;117000;1188;22631;-76
2021/10/09 00:08:35;;;;;;;26.90;16.90;;;;;;;5.91;61.93;102299.90;117042;1184;22917;-75
2021/10/09 00:11:06;;;;;;;24.80;16.90;;;;;;;5.90;62.01;102296.96;117023;1188;22879;-76
2021/10/09 00:13:36;;;;;;;23.80;17.50;;;;;;;5.87;62.07;102299.39;117115;1188;23519;-76
2021/10/09 00:16:05;;;;;;;21.40;16.50;;;;;;;5.84;62.18;102300.82;116900;1189;22747;-75
2021/10/09 00:18:34;;;;;;;22.30;16.20;;;;;;;5.80;62.19;102301.03;116486;1192;21906;-76
2021/10/09 00:21:04;;;;;;;24.90;17.10;;;;;;;5.76;62.19;102299.02;116755;1192;22260;-76
2021/10/09 00:23:34;;;;;;;24.90;17.50;;;;;;;5.72;62.37;102300.27;116617;1192;22033;-76
2021/10/09 00:26:03;;;;;;;24.80;17.60;;;;;;;5.72;62.47;102301.36;116589;1190;24317;-76
2021/10/09 00:28:33;;;;;;;22.10;16.00;;;;;;;5.72;62.58;102301.35;116396;1193;22872;-75
2021/10/09 00:31:03;;;;;;;26.40;16.80;;;;;;;5.71;62.61;102301.41;116415;1195;21897;-76
2021/10/09 00:33:32;;;;;;;28.20;21.80;;;;;;;5.69;62.66;102302.56;116411;1195;21904;-77
2021/10/09 00:36:01;;;;;;;25.40;18.20;;;;;;;5.67;62.71;102303.55;116400;1195;21907;-76
2021/10/09 00:38:31;;;;;;;28.30;19.10;;;;;;;5.67;62.91;102302.31;116159;1196;21908;-75
2021/10/09 00:41:01;;;;;;;31.80;18.60;;;;;;;5.69;62.96;102301.01;116107;1194;22220;-76
2021/10/09 00:43:31;;;;;;;29.90;17.80;;;;;;;5.69;62.95;102303.80;116307;1194;21899;-76
2021/10/09 00:46:02;;;;;;;25.20;18.10;;;;;;;5.67;62.89;102302.31;116476;1194;21902;-76
2021/10/09 00:48:34;;;;;;;21.70;17.40;;;;;;;5.63;62.95;102302.72;116478;1194;22034;-78
2021/10/09 00:51:05;;;;;;;23.40;17.30;;;;;;;5.59;63.00;102302.39;116488;1194;23286;-79
2021/10/09 00:53:36;;;;;;;29.50;19.10;;;;;;;5.56;63.13;102304.85;116558;1193;23438;-76
2021/10/09 00:56:08;;;;;;;28.70;20.00;;;;;;;5.55;63.31;102304.39;116518;1190;22939;-76
2021/10/09 00:58:38;;;;;;;30.20;18.80;;;;;;;5.54;63.31;102302.21;116811;1191;22639;-76
2021/10/09 01:01:08;;;;;;;26.00;19.40;;;;;;;5.52;63.36;102299.34;116775;1191;23083;-77
2021/10/09 01:03:38;;;;;;;34.10;18.30;;;;;;;5.52;63.40;102298.10;116528;1190;21995;-76
2021/10/09 01:06:08;;;;;;;30.90;20.90;;;;;;;5.52;63.54;102298.96;116506;1188;22887;-76
2021/10/09 01:08:38;;;;;;;21.10;17.00;;;;;;;5.53;63.56;102301.19;116505;1193;21868;-76
2021/10/09 01:11:07;;;;;;;22.10;17.60;;;;;;;5.52;63.53;102299.48;116312;1194;22326;-76
2021/10/09 01:13:37;;;;;;;23.80;17.90;;;;;;;5.51;63.50;102294.16;116481;1193;21889;-77
2021/10/09 01:16:28;;;;;;;28.70;18.70;;;;;;;5.50;63.55;102294.41;116467;1182;22996;-75
2021/10/09 01:19:00;;;;;;;25.90;20.10;;;;;;;5.47;63.60;102293.52;116496;1193;21923;-76
2021/10/09 01:21:47;;;;;;;27.10;19.00;;;;;;;5.44;63.69;102295.96;116480;1193;22955;-76
2021/10/09 01:24:19;;;;;;;27.70;19.40;;;;;;;5.38;63.69;102294.35;116478;1187;21907;-76
2021/10/09 01:26:49;;;;;;;;;;;;;;;5.34;63.71;102294.71;116510;1193;22210;-75
2021/10/09 01:29:25;;;;;;;27.80;19.10;;;;;;;5.25;63.78;102292.44;116822;1189;22944;-75
2021/10/09 01:31:59;;;;;;;31.00;20.30;;;;;;;5.24;64.01;102290.27;116906;1188;22632;-76
2021/10/09 01:34:30;;;;;;;31.60;21.30;;;;;;;5.24;64.00;102290.42;116922;1188;22901;-75
2021/10/09 01:37:04;;;;;;;30.00;20.20;;;;;;;5.24;64.02;102292.89;117056;1181;22816;-76
2021/10/09 01:39:48;;;;;;;27.50;19.90;;;;;;;5.24;64.11;102290.41;117001;1188;22902;-75
2021/10/09 01:42:24;;;;;;;24.30;19.30;;;;;;;5.24;64.05;102289.40;117061;1184;21896;-76
2021/10/09 01:44:54;;;;;;;24.60;18.80;;;;;;;5.21;64.06;102286.04;117073;1188;21880;-75
2021/10/09 01:47:23;;;;;;;22.50;18.60;;;;;;;5.18;64.18;102285.52;116989;1187;22947;-75
2021/10/09 01:49:53;;;;;;;27.00;19.80;;;;;;;5.16;64.35;102283.88;117117;1184;22717;-75
2021/10/09 01:52:22;;;;;;;26.70;19.20;;;;;;;5.16;64.57;102285.81;116993;1187;21880;-75
2021/10/09 01:54:52;;;;;;;32.90;20.90;;;;;;;5.15;64.65;102282.89;117095;1187;21916;-75
2021/10/09 01:57:23;;;;;;;27.40;19.30;;;;;;;5.13;64.68;102282.98;117078;1187;21993;-75
2021/10/09 01:59:56;;;;;;;26.00;19.90;;;;;;;5.11;64.59;102283.11;117078;1187;22631;-75
2021/10/09 02:02:36;;;;;;;27.60;20.70;;;;;;;5.08;64.63;102282.73;117035;1188;22347;-75
2021/10/09 02:05:06;;;;;;;26.90;21.10;;;;;;;5.07;64.67;102278.59;117113;1188;21908;-75
2021/10/09 02:07:36;;;;;;;29.80;21.30;;;;;;;5.07;64.65;102283.36;116873;1187;22927;-75
2021/10/09 02:10:07;;;;;;;26.70;20.10;;;;;;;5.06;64.77;102283.01;117026;1188;21900;-75
2021/10/09 02:12:37;;;;;;;28.80;21.30;;;;;;;5.07;64.93;102277.39;116898;1187;23608;-75
2021/10/09 02:15:17;;;;;;;28.30;20.80;;;;;;;5.07;64.92;102277.73;117000;1187;21906;-76
2021/10/09 02:26:11;;;;;;;24.40;19.20;;;;;;;4.98;65.30;102283.14;117055;1186;23585;-75
2021/10/09 02:28:44;;;;;;;26.10;19.20;;;;;;;4.97;65.50;102284.25;116855;1189;22848;-76
2021/10/09 02:31:13;;;;;;;26.10;19.90;;;;;;;4.95;65.42;102288.70;117041;1188;21908;-75
2021/10/09 02:33:43;;;;;;;25.70;21.00;;;;;;;4.92;65.37;102289.02;117001;1188;22338;-75
2021/10/09 02:36:12;;;;;;;28.00;19.40;;;;;;;4.92;65.51;102291.14;116924;1188;21877;-75
2021/10/09 02:38:43;;;;;;;28.70;20.80;;;;;;;4.90;65.44;102291.77;117078;1185;21880;-75
2021/10/09 02:41:15;;;;;;;26.30;19.90;;;;;;;4.90;65.62;102289.66;117124;1188;23547;-76
2021/10/09 02:43:45;;;;;;;33.10;19.30;;;;;;;4.92;65.67;102289.74;116979;1188;21881;-74
2021/10/09 02:46:15;;;;;;;28.40;20.80;;;;;;;4.93;65.63;102294.58;116897;1187;21907;-75
2021/10/09 02:48:44;;;;;;;27.30;20.10;;;;;;;4.94;65.52;102291.17;116969;1189;21903;-75
2021/10/09 02:51:14;;;;;;;26.70;19.90;;;;;;;4.94;65.45;102289.63;116979;1188;21923;-75
2021/10/09 02:53:45;;;;;;;27.50;20.80;;;;;;;4.92;65.39;102290.43;117029;1187;21931;-75
2021/10/09 02:56:14;;;;;;;33.50;21.70;;;;;;;4.91;65.52;102288.05;116980;1186;22315;-75
2021/10/09 02:58:43;;;;;;;28.80;21.50;;;;;;;4.90;65.51;102290.56;116822;1189;21890;-75
2021/10/09 03:01:15;;;;;;;33.00;22.30;;;;;;;4.86;65.46;102288.65;116982;1188;23712;-75
2021/10/09 03:03:45;;;;;;;29.40;21.80;;;;;;;4.80;65.43;102285.31;117075;1188;21973;-75
2021/10/09 03:06:14;;;;;;;26.10;21.10;;;;;;;4.74;65.59;102284.77;116944;1189;22151;-76
2021/10/09 03:08:44;;;;;;;25.00;20.50;;;;;;;4.68;65.68;102286.45;116910;1178;22910;-76
2021/10/09 03:11:13;;;;;;;29.30;21.80;;;;;;;4.65;65.78;102284.20;116829;1188;22962;-76
2021/10/09 03:13:45;;;;;;;34.60;20.90;;;;;;;4.62;65.89;102284.55;116856;1188;21887;-76
2021/10/09 03:16:15;;;;;;;26.40;20.30;;;;;;;4.60;66.04;102280.45;116880;1186;21896;-76
2021/10/09 03:18:46;;;;;;;21.80;19.40;;;;;;;4.61;66.18;102280.75;117071;1187;22903;-76
2021/10/09 03:21:15;;;;;;;33.70;20.80;;;;;;;4.62;66.25;102281.40;116921;1188;22348;-76
2021/10/09 03:23:45;;;;;;;24.80;18.60;;;;;;;4.62;66.25;102285.23;117142;1188;21879;-76
2021/10/09 03:26:16;;;;;;;23.70;19.30;;;;;;;4.62;66.31;102290.33;116980;1188;23458;-76
2021/10/09 03:28:46;;;;;;;27.00;20.20;;;;;;;4.63;66.45;102291.47;116956;1177;21890;-76
2021/10/09 03:31:16;;;;;;;27.30;20.00;;;;;;;4.64;66.40;102288.79;117060;1188;21868;-76
2021/10/09 03:33:45;;;;;;;27.10;19.30;;;;;;;4.65;66.39;102290.67;116860;1189;21901;-76
2021/10/09 03:36:15;;;;;;;27.10;22.10;;;;;;;4.63;66.40;102293.21;116848;1187;21939;-76
2021/10/09 03:38:45;;;;;;;24.70;19.20;;;;;;;4.63;66.43;102291.30;117079;1187;22984;-76
2021/10/09 03:41:16;;;;;;;28.70;21.50;;;;;;;4.62;66.45;102290.85;116845;1188;21937;-76
2021/10/09 03:43:46;;;;;;;25.50;20.40;;;;;;;4.60;66.48;102292.84;117058;1188;23533;-76
2021/10/09 03:54:17;;;;;;;26.80;19.90;;;;;;;4.57;66.57;102300.20;116816;1187;21914;-77
2021/10/09 03:56:46;;;;;;;30.40;20.00;;;;;;;4.51;66.54;102297.36;116766;1190;23623;-77
2021/10/09 03:59:15;;;;;;;24.60;21.40;;;;;;;4.46;66.66;102297.59;116802;1190;21882;-77
2021/10/09 04:01:46;;;;;;;27.90;20.70;;;;;;;4.42;66.62;102296.06;116869;1190;22066;-76
2021/10/09 04:04:16;;;;;;;28.90;19.90;;;;;;;4.38;66.58;102296.45;116772;1190;21895;-76
2021/10/09 04:06:45;;;;;;;25.00;19.70;;;;;;;4.35;66.66;102297.67;116781;1190;21971;-75
2021/10/09 04:09:14;;;;;;;29.30;21.30;;;;;;;4.35;66.79;102299.40;116801;1190;23488;-75
2021/10/09 04:11:45;;;;;;;30.00;20.10;;;;;;;4.34;66.75;102302.95;116831;1188;21899;-76
2021/10/09 04:14:15;;;;;;;29.30;21.60;;;;;;;4.33;66.85;102301.45;117053;1187;23462;-76
2021/10/09 04:16:45;;;;;;;24.40;21.80;;;;;;;4.31;66.91;102298.07;116967;1188;22249;-76
2021/10/09 04:19:14;;;;;;;27.80;20.90;;;;;;;4.29;66.89;102303.02;116853;1188;22650;-76
2021/10/09 04:21:47;;;;;;;30.20;20.50;;;;;;;4.28;66.98;102301.02;117052;1187;21888;-76
2021/10/09 04:24:19;;;;;;;24.50;20.50;;;;;;;4.25;66.98;102299.02;116870;1187;22895;-76
2021/10/09 04:26:53;;;;;;;24.40;20.90;;;;;;;4.22;67.09;102302.35;117107;1188;22918;-75
2021/10/09 04:29:22;;;;;;;25.20;19.30;;;;;;;4.22;67.29;102300.79;116827;1188;21898;-78
2021/10/09 04:31:53;;;;;;;27.70;19.80;;;;;;;4.24;67.34;102302.44;117230;1187;21928;-78
2021/10/09 04:34:22;;;;;;;27.30;20.70;;;;;;;4.25;67.37;102301.83;117119;1188;23470;-77
2021/10/09 04:36:58;;;;;;;28.70;20.70;;;;;;;4.27;67.41;102300.55;117055;1188;21886;-77
2021/10/09 04:39:30;;;;;;;26.80;20.30;;;;;;;4.28;67.42;102301.88;117116;1188;21956;-76
2021/10/09 04:42:06;;;;;;;28.80;18.90;;;;;;;4.30;67.48;102302.11;117142;1187;21900;-77
2021/10/09 04:44:36;;;;;;;28.50;20.00;;;;;;;4.31;67.37;102302.76;117051;1188;21897;-75
2021/10/09 04:47:10;;;;;;;25.00;18.60;;;;;;;4.29;67.24;102299.38;117155;1188;21992;-75
2021/10/09 04:49:42;;;;;;;29.90;19.70;;;;;;;4.27;67.21;102298.59;117131;1188;23616;-75
2021/10/09 04:52:11;;;;;;;24.40;17.70;;;;;;;4.25;67.15;102297.14;117185;1188;21876;-75
2021/10/09 04:54:41;;;;;;;29.60;18.90;;;;;;;4.21;67.09;102298.91;117164;1188;23571;-75
2021/10/09 04:57:14;;;;;;;25.90;19.10;;;;;;;4.14;67.03;102297.70;117114;1187;21914;-75
2021/10/09 04:59:44;;;;;;;25.60;20.50;;;;;;;4.05;67.03;102300.07;117156;1180;23561;-75
2021/10/09 05:02:15;;;;;;;27.80;20.50;;;;;;;3.96;67.05;102297.20;117119;1187;22705;-75
2021/10/09 05:04:48;;;;;;;30.40;21.50;;;;;;;3.88;67.26;102299.71;117138;1187;22904;-76
2021/10/09 05:07:17;;;;;;;31.60;20.70;;;;;;;3.81;67.29;102301.80;117040;1188;21947;-76
2021/10/09 05:09:48;;;;;;;27.50;21.40;;;;;;;3.77;67.50;102304.06;117113;1188;21888;-77
2021/10/09 05:12:17;;;;;;;31.60;22.20;;;;;;;3.76;67.65;102306.05;117008;1188;21878;-76
2021/10/09 05:14:47;;;;;;;30.70;22.60;;;;;;;3.74;67.75;102303.19;117053;1188;22620;-76
2021/10/09 05:17:27;;;;;;;34.20;23.40;;;;;;;3.74;67.88;102306.15;117053;1188;22917;-76
2021/10/09 05:20:07;;;;;;;30.50;23.10;;;;;;;3.74;67.99;102306.52;116877;1187;21887;-75
2021/10/09 05:22:37;;;;;;;30.00;24.60;;;;;;;3.73;68.01;102310.56;116876;1184;21889;-76
2021/10/09 05:25:06;;;;;;;29.80;22.90;;;;;;;3.73;68.09;102310.56;116926;1188;23530;-75
2021/10/09 05:27:37;;;;;;;32.60;24.70;;;;;;;3.75;68.20;102312.91;117018;1176;21883;-75
2021/10/09 05:30:10;;;;;;;29.00;24.30;;;;;;;3.77;68.24;102310.71;117080;1187;21945;-75
2021/10/09 05:32:48;;;;;;;31.30;24.50;;;;;;;3.80;68.40;102313.39;117052;1177;21887;-75
2021/10/09 05:35:18;;;;;;;32.20;23.50;;;;;;;3.82;68.40;102317.96;116989;1188;22998;-75
2021/10/09 05:37:47;;;;;;;34.50;25.70;;;;;;;3.85;68.42;102323.73;116907;1188;23536;-76
2021/10/09 05:40:17;;;;;;;36.00;25.80;;;;;;;3.89;68.50;102330.16;116549;1192;21886;-76
2021/10/09 05:42:47;;;;;;;31.70;24.60;;;;;;;3.93;68.56;102331.17;116522;1191;21887;-76
2021/10/09 05:45:16;;;;;;;29.10;22.90;;;;;;;3.99;68.66;102332.48;116789;1191;23439;-75
2021/10/09 05:47:49;;;;;;;34.40;24.30;;;;;;;4.04;68.55;102329.79;116908;1191;21894;-76
2021/10/09 05:50:21;;;;;;;33.60;23.40;;;;;;;4.07;68.56;102331.05;116744;1184;21985;-75
2021/10/09 05:53:01;;;;;;;34.60;24.30;;;;;;;4.09;68.47;102332.67;116818;1191;23442;-76
2021/10/09 05:55:36;;;;;;;32.50;23.00;;;;;;;4.13;68.51;102332.44;116828;1191;22253;-78
2021/10/09 06:37:21;;;;;;;33.00;25.50;;;;;;;4.67;68.03;102352.53;116776;1191;22907;-76
2021/10/09 06:42:02;;;;;;;33.30;26.40;;;;;;;4.83;67.89;102354.46;116863;1183;21935;-77
2021/10/09 07:00:17;;;;;;;35.10;26.30;;;;;;;5.80;67.81;102367.32;116523;1193;24204;-76
2021/10/09 07:02:48;;;;;;;34.20;25.40;;;;;;;6.04;67.97;102371.56;116600;1193;21926;-77
2021/10/09 07:05:18;;;;;;;32.10;27.20;;;;;;;6.33;67.83;102372.52;116597;1193;22398;-76
2021/10/09 07:07:58;;;;;;;43.50;30.40;;;;;;;6.59;67.22;102374.79;116578;1193;23481;-75
2021/10/09 07:10:39;;;;;;;44.10;31.00;;;;;;;6.89;67.19;102379.27;116545;1193;21891;-77
2021/10/09 07:13:10;;;;;;;41.70;27.70;;;;;;;7.33;67.71;102378.23;116536;1191;22819;-76
2021/10/09 07:15:41;;;;;;;42.70;28.90;;;;;;;7.84;67.69;102377.23;116545;1192;23592;-77
2021/10/09 07:18:12;;;;;;;31.90;27.20;;;;;;;8.33;66.64;102378.93;116773;1189;21884;-77
2021/10/09 07:20:42;;;;;;;33.90;26.90;;;;;;;8.76;65.22;102380.23;116857;1188;22189;-76
2021/10/09 07:23:12;;;;;;;30.50;24.60;;;;;;;9.16;64.12;102381.45;117054;1187;23431;-76
2021/10/09 07:25:42;;;;;;;26.00;21.50;;;;;;;9.49;62.28;102385.79;117024;1188;22650;-76
2021/10/09 07:28:11;;;;;;;25.60;22.80;;;;;;;9.74;60.97;102387.27;116883;1188;23554;-77
2021/10/09 07:30:44;;;;;;;28.40;22.50;;;;;;;10.00;60.06;102391.01;117045;1186;22064;-76
2021/10/09 07:33:14;;;;;;;30.70;22.10;;;;;;;10.24;59.02;102391.02;116810;1189;23021;-76
2021/10/09 07:35:43;;;;;;;31.00;25.40;;;;;;;10.41;57.75;102389.75;116952;1189;23425;-77
2021/10/09 07:38:14;;;;;;;29.50;23.10;;;;;;;10.61;57.52;102387.17;117055;1186;22681;-76
2021/10/09 07:40:44;;;;;;;26.50;23.40;;;;;;;10.84;56.70;102391.90;116969;1187;21868;-76
2021/10/09 07:43:14;;;;;;;28.40;21.60;;;;;;;10.91;55.52;102397.20;117070;1188;22354;-77
2021/10/09 07:45:48;;;;;;;34.90;21.20;;;;;;;11.04;55.51;102400.54;117075;1186;21919;-77
2021/10/09 07:48:18;;;;;;;36.00;29.80;;;;;;;11.22;55.59;102403.64;116903;1187;23437;-78
2021/10/09 07:50:47;;;;;;;27.10;20.50;;;;;;;11.49;55.43;102402.59;116912;1187;21912;-76
2021/10/09 07:53:16;;;;;;;21.60;19.30;;;;;;;11.76;54.79;102408.00;116848;1188;21889;-77
2021/10/09 07:55:47;;;;;;;25.00;22.20;;;;;;;11.96;53.74;102409.54;116837;1188;22941;-77
2021/10/09 07:58:18;;;;;;;24.00;19.40;;;;;;;12.08;53.05;102409.97;116765;1191;21906;-76
2021/10/09 08:00:47;;;;;;;25.90;20.60;;;;;;;12.25;52.47;102409.43;116764;1191;21878;-76
2021/10/09 08:03:23;;;;;;;29.80;19.40;;;;;;;12.35;52.03;102408.44;116710;1191;22926;-75
2021/10/09 08:05:53;;;;;;;22.70;19.80;;;;;;;12.54;52.05;102406.16;116633;1191;22946;-78
2021/10/09 08:08:23;;;;;;;22.20;19.40;;;;;;;12.74;51.87;102405.80;116498;1193;21902;-78
2021/10/09 08:10:53;;;;;;;25.10;18.40;;;;;;;12.99;51.11;102408.43;116453;1192;22365;-76
2021/10/09 08:13:25;;;;;;;21.50;17.70;;;;;;;12.96;49.29;102407.99;116505;1193;21893;-78
2021/10/09 08:15:54;;;;;;;18.30;16.40;;;;;;;12.87;49.47;102410.33;116663;1190;22298;-77
2021/10/09 08:18:24;;;;;;;20.50;17.20;;;;;;;12.97;49.76;102411.33;116869;1190;23631;-76
2021/10/09 08:21:04;;;;;;;23.00;18.00;;;;;;;12.96;48.90;102407.66;116563;1193;21904;-76
2021/10/09 08:23:51;;;;;;;23.90;17.20;;;;;;;13.02;49.29;102408.02;116558;1180;22149;-77
2021/10/09 08:26:43;;;;;;;23.10;17.00;;;;;;;13.10;48.77;102407.84;116598;1190;22838;-75
2021/10/09 08:40:17;;;;;;;19.70;13.70;;;;;;;13.55;47.83;102402.81;117035;1188;21886;-77
2021/10/09 08:42:46;;;;;;;18.30;13.70;;;;;;;13.54;47.01;102404.09;117121;1186;21903;-75
2021/10/09 08:45:16;;;;;;;20.70;14.80;;;;;;;13.56;47.02;102405.89;117068;1188;22887;-74
2021/10/09 08:47:45;;;;;;;16.40;13.90;;;;;;;13.64;46.85;102406.80;116964;1187;22854;-76
2021/10/09 08:50:15;;;;;;;18.10;14.80;;;;;;;13.71;46.36;102403.85;117053;1186;21875;-76
2021/10/09 08:53:07;;;;;;;19.20;15.50;;;;;;;13.71;45.91;102407.55;117080;1188;21896;-77
2021/10/09 08:55:45;;;;;;;17.30;15.30;;;;;;;13.72;45.62;102406.30;117047;1188;23683;-76
2021/10/09 08:58:32;;;;;;;18.10;13.30;;;;;;;13.74;45.60;102409.25;117069;1188;22823;-77
2021/10/09 09:04:14;;;;;;;17.40;12.10;;;;;;;13.67;45.04;102408.88;117219;1188;23511;-78
2021/10/09 09:26:37;;;;;;;14.80;10.40;;;;;;;13.72;44.11;102397.88;116702;1191;21892;-77
2021/10/09 09:37:44;;;;;;;13.70;9.60;;;;;;;14.28;43.69;102395.11;116887;1190;21902;-77
2021/10/09 09:40:17;;;;;;;10.30;8.90;;;;;;;14.40;42.69;102391.50;116574;1190;21935;-77
2021/10/09 09:42:52;;;;;;;9.80;8.10;;;;;;;14.44;42.35;102386.15;116539;1190;21918;-78
2021/10/09 09:45:26;;;;;;;11.10;8.70;;;;;;;14.62;42.32;102384.11;116575;1190;21889;-78
2021/10/09 09:48:00;;;;;;;11.10;8.30;;;;;;;14.80;41.57;102385.23;116612;1193;21891;-78
2021/10/09 09:50:32;;;;;;;10.10;8.40;;;;;;;14.92;40.95;102384.71;116410;1194;23544;-78
2021/10/09 09:53:04;;;;;;;;;;;;;;;15.09;40.56;102390.75;116587;1193;22644;-79
2021/10/09 09:55:34;;;;;;;9.90;7.80;;;;;;;15.17;40.05;102387.66;116480;1192;23497;-78
2021/10/09 09:58:24;;;;;;;9.10;7.40;;;;;;;15.23;39.45;102390.59;116589;1191;21909;-79
2021/10/09 10:00:59;;;;;;;10.30;7.80;;;;;;;15.32;39.28;102387.37;116897;1188;21915;-78
2021/10/09 10:03:29;;;;;;;10.60;7.70;;;;;;;15.41;38.74;102389.65;116404;1195;22893;-77
2021/10/09 10:06:01;;;;;;;9.90;8.10;;;;;;;15.40;38.25;102385.18;116356;1193;22002;-77
2021/10/09 10:08:31;;;;;;;11.40;7.40;;;;;;;15.47;38.11;102377.23;116373;1192;23541;-78
2021/10/09 10:11:03;;;;;;;9.80;7.70;;;;;;;15.55;38.07;102379.85;116761;1190;22631;-77
2021/10/09 10:13:42;;;;;;;11.50;9.20;;;;;;;15.62;37.64;102372.33;116500;1194;21902;-78
2021/10/09 10:16:12;;;;;;;10.90;9.10;;;;;;;15.74;37.96;102371.77;116563;1194;22997;-78
2021/10/09 10:18:45;;;;;;;11.50;9.20;;;;;;;15.85;37.72;102377.94;116319;1197;21924;-78
2021/10/09 10:21:40;;;;;;;11.90;9.40;;;;;;;15.97;37.46;102374.27;116392;1194;23527;-77
2021/10/09 10:24:48;;;;;;;10.40;7.70;;;;;;;16.07;37.38;102366.98;116504;1194;23600;-77
2021/10/09 10:27:40;;;;;;;11.50;9.00;;;;;;;16.26;37.36;102361.37;116519;1191;23545;-78
2021/10/09 10:30:15;;;;;;;9.80;8.80;;;;;;;16.32;36.90;102364.33;116347;1196;22237;-78
2021/10/09 10:32:53;;;;;;;9.50;8.50;;;;;;;16.33;36.81;102364.71;116454;1195;22947;-78
2021/10/09 10:35:55;;;;;;;10.80;8.40;;;;;;;16.34;36.64;102364.79;116421;1195;21919;-77
2021/10/09 10:38:47;;;;;;;11.00;8.80;;;;;;;16.45;36.82;102357.79;116292;1196;21901;-79
2021/10/09 10:41:37;;;;;;;11.90;9.50;;;;;;;16.47;36.58;102357.90;116283;1196;22932;-78
2021/10/09 10:44:30;;;;;;;10.60;7.90;;;;;;;16.39;36.09;102352.91;116335;1196;23608;-78
2021/10/09 10:47:03;;;;;;;9.70;8.20;;;;;;;16.34;36.14;102348.69;116575;1193;21900;-78
2021/10/09 10:49:48;;;;;;;8.70;7.80;;;;;;;16.39;36.39;102346.85;116622;1192;21899;-77
2021/10/09 10:52:56;;;;;;;8.80;7.50;;;;;;;16.44;36.12;102345.64;116759;1192;22304;-77
2021/10/09 10:56:13;;;;;;;9.10;8.20;;;;;;;16.24;35.76;102345.77;116502;1193;22095;-80
2021/10/09 10:59:33;;;;;;;18.30;6.90;;;;;;;15.79;35.45;102342.86;116411;1192;23487;-78
2021/10/09 11:02:12;;;;;;;11.90;7.50;;;;;;;15.40;36.10;102341.11;116394;1196;21902;-78
2021/10/09 11:04:59;;;;;;;14.30;7.50;;;;;;;15.08;36.39;102336.27;116418;1196;22936;-78
2021/10/09 11:07:34;;;;;;;9.10;7.40;;;;;;;14.88;37.16;102337.33;116454;1195;21905;-78
2021/10/09 11:10:09;;;;;;;8.80;7.80;;;;;;;14.74;37.16;102338.31;116243;1197;23280;-77
2021/10/09 11:12:49;;;;;;;8.40;7.50;;;;;;;14.50;37.30;102334.25;116266;1197;21891;-78
2021/10/09 11:15:25;;;;;;;13.50;7.80;;;;;;;14.32;37.76;102328.64;116850;1192;21879;-78
2021/10/09 11:18:03;;;;;;;8.20;7.30;;;;;;;14.21;37.89;102331.61;116547;1183;22916;-77
2021/10/09 11:20:41;;;;;;;8.30;6.70;;;;;;;14.06;38.02;102327.65;116613;1194;22000;-77
2021/10/09 11:23:13;;;;;;;9.40;7.90;;;;;;;13.94;38.03;102331.30;116347;1181;21898;-78
2021/10/09 11:25:50;;;;;;;8.60;5.70;;;;;;;13.77;38.24;102328.25;116491;1193;21918;-77
2021/10/09 11:28:28;;;;;;;7.20;6.50;;;;;;;13.62;38.52;102318.92;116360;1195;23470;-78
2021/10/09 11:31:01;;;;;;;10.30;6.50;;;;;;;13.59;38.76;102317.51;116402;1193;22952;-77
2021/10/09 11:33:32;;;;;;;9.40;5.40;;;;;;;13.56;38.46;102316.64;116079;1196;21928;-77
2021/10/09 11:36:03;;;;;;;8.40;7.20;;;;;;;13.48;38.38;102313.34;116344;1194;22647;-78
2021/10/09 11:38:33;;;;;;;11.00;7.40;;;;;;;13.46;38.66;102313.86;116586;1193;23445;-78
2021/10/09 11:41:15;;;;;;;8.50;6.70;;;;;;;13.44;38.62;102313.17;116354;1193;21903;-79
2021/10/09 11:44:01;;;;;;;7.60;6.70;;;;;;;13.41;38.89;102308.33;116633;1193;21927;-78
2021/10/09 11:55:21;;;;;;;6.90;5.60;;;;;;;13.26;38.83;102308.80;116386;1196;22672;-78
2021/10/09 11:57:52;;;;;;;8.10;5.70;;;;;;;13.21;38.70;102311.54;116245;1197;22047;-78
2021/10/09 12:00:29;;;;;;;8.90;7.00;;;;;;;13.17;38.63;102313.27;116276;1193;22027;-78
2021/10/09 12:03:24;;;;;;;7.60;5.80;;;;;;;13.13;38.52;102315.08;116340;1197;22943;-78
2021/10/09 12:06:10;;;;;;;7.90;5.20;;;;;;;13.06;38.46;102312.96;116156;1198;22323;-78
2021/10/09 12:08:56;;;;;;;7.30;5.70;;;;;;;13.02;38.43;102305.41;116141;1199;23506;-78
2021/10/09 12:11:31;;;;;;;8.80;5.20;;;;;;;13.01;38.53;102298.23;116176;1196;21912;-78
2021/10/09 12:14:05;;;;;;;7.90;5.70;;;;;;;12.99;38.45;102301.08;116631;1192;22067;-78
2021/10/09 12:17:03;;;;;;;8.60;6.30;;;;;;;12.99;38.39;102294.57;116829;1191;23697;-78
2021/10/09 12:19:32;;;;;;;8.30;6.80;;;;;;;12.99;38.49;102289.75;116789;1191;21887;-78
2021/10/09 12:22:11;;;;;;;9.20;7.00;;;;;;;13.04;38.81;102285.08;116557;1193;22916;-78
2021/10/09 12:24:59;;;;;;;7.90;6.20;;;;;;;13.10;38.76;102280.24;116757;1190;21929;-78
2021/10/09 12:27:40;;;;;;;10.50;6.70;;;;;;;13.10;38.35;102279.01;116831;1191;23425;-79
2021/10/09 12:30:12;;;;;;;10.80;6.90;;;;;;;13.08;38.45;102278.81;116767;1190;22748;-78
2021/10/09 12:32:48;;;;;;;9.50;6.40;;;;;;;13.08;38.47;102277.42;116859;1191;23440;-78
2021/10/09 12:35:24;;;;;;;7.30;5.50;;;;;;;13.10;38.53;102273.41;116737;1193;21886;-78
2021/10/09 12:38:09;;;;;;;10.70;6.20;;;;;;;13.11;38.43;102276.98;116474;1193;21987;-77
2021/10/09 12:40:48;;;;;;;10.20;6.40;;;;;;;13.09;38.24;102272.97;116458;1195;23399;-78
2021/10/09 12:43:23;;;;;;;9.40;6.00;;;;;;;13.06;38.35;102272.66;116255;1196;21905;-78
2021/10/09 12:45:53;;;;;;;12.30;8.30;;;;;;;13.04;38.38;102273.08;116257;1190;24176;-77
2021/10/09 12:48:25;;;;;;;7.60;5.60;;;;;;;13.04;38.62;102269.86;116249;1193;23534;-78
2021/10/09 12:50:56;;;;;;;10.40;7.10;;;;;;;13.05;38.46;102267.30;116222;1197;21986;-77
2021/10/09 12:53:29;;;;;;;7.50;6.20;;;;;;;13.05;38.21;102266.80;116293;1195;21934;-77
2021/10/09 12:55:59;;;;;;;6.20;5.40;;;;;;;13.05;38.39;102269.28;116404;1193;21939;-77
2021/10/09 12:58:29;;;;;;;6.80;6.00;;;;;;;13.03;38.19;102267.32;116493;1193;21915;-77
2021/10/09 13:01:06;;;;;;;8.20;4.70;;;;;;;13.02;38.12;102264.89;116575;1191;21887;-77
2021/10/09 13:03:36;;;;;;;6.10;4.70;;;;;;;13.03;37.78;102267.86;116841;1191;21917;-77
2021/10/09 13:06:06;;;;;;;6.40;5.00;;;;;;;13.00;37.57;102268.10;116747;1188;22355;-77
2021/10/09 13:08:35;;;;;;;11.00;5.90;;;;;;;12.97;37.52;102263.43;117040;1188;21914;-78
2021/10/09 13:11:05;;;;;;;9.90;9.00;;;;;;;12.97;37.38;102261.84;117080;1187;21896;-77
2021/10/09 13:13:34;;;;;;;6.80;5.20;;;;;;;12.97;37.37;102258.46;117112;1188;21891;-77
2021/10/09 13:16:03;;;;;;;7.50;6.20;;;;;;;12.98;37.33;102256.77;117091;1188;21896;-77
2021/10/09 13:18:33;;;;;;;9.60;7.60;;;;;;;12.99;37.14;102254.55;117047;1188;21901;-78
2021/10/09 13:21:15;;;;;;;11.80;7.70;;;;;;;13.00;36.92;102253.55;116806;1191;22376;-76
2021/10/09 13:23:46;;;;;;;8.60;5.20;;;;;;;13.02;36.75;102254.87;116587;1193;21887;-77
2021/10/09 13:26:16;;;;;;;12.90;5.90;;;;;;;12.98;36.58;102251.95;116534;1190;22835;-76
2021/10/09 13:28:45;;;;;;;7.50;4.70;;;;;;;12.98;36.50;102248.13;116437;1194;23603;-77
2021/10/09 13:31:15;;;;;;;6.30;4.70;;;;;;;12.96;36.34;102247.20;116082;1190;21894;-77
2021/10/09 13:33:44;;;;;;;10.00;6.50;;;;;;;12.92;36.42;102241.90;116039;1198;22242;-77
2021/10/09 13:36:13;;;;;;;9.70;5.10;;;;;;;12.93;36.76;102240.20;116128;1198;22901;-78
2021/10/09 13:38:44;;;;;;;6.70;5.00;;;;;;;12.96;36.87;102238.58;116159;1198;22001;-76
2021/10/09 13:41:13;;;;;;;5.90;5.30;;;;;;;12.95;36.86;102239.38;116182;1186;21927;-77
2021/10/09 13:43:42;;;;;;;8.80;6.50;;;;;;;12.93;36.97;102235.41;116354;1195;22826;-76